Time;durP1;ratioP1;P1;durP2;ratioP2;P2;SDS_P1;SDS_P2;PMS_P1;PMS_P2;Temp;Humidity;BMP_temperature;BMP_pressure;BME280_temperature;BME280_humidity;BME280_pressure;Samples;Min_cycle;Max_cycle;Signal;HPM_P1;HPM_P2
2022/10/22 00:01:58;;;;;;;7.10;4.80;;;13.70;99.90;;;;;;4992351;28;20046;-74
2022/10/22 00:04:24;;;;;;;9.02;4.63;;;13.70;99.90;;;;;;4992853;28;20654;-74
2022/10/22 00:06:49;;;;;;;8.73;4.43;;;13.60;99.90;;;;;;4973999;28;20494;-73
2022/10/22 00:09:15;;;;;;;7.95;4.95;;;13.60;99.90;;;;;;4992180;28;20528;-73
2022/10/22 00:11:42;;;;;;;7.40;4.65;;;13.60;99.90;;;;;;4992199;28;20086;-73
2022/10/22 00:14:08;;;;;;;8.80;4.63;;;13.60;99.90;;;;;;4975288;28;20042;-73
2022/10/22 00:16:33;;;;;;;8.63;4.88;;;13.60;99.90;;;;;;4989081;28;20078;-73
2022/10/22 00:18:59;;;;;;;8.85;4.20;;;13.50;99.90;;;;;;4990230;28;20523;-73
2022/10/22 00:21:27;;;;;;;8.48;5.00;;;13.50;99.90;;;;;;4992086;28;20039;-73
2022/10/22 00:23:54;;;;;;;14.55;4.75;;;13.50;99.90;;;;;;4974731;28;20042;-73
2022/10/22 00:26:19;;;;;;;8.82;4.45;;;13.40;99.90;;;;;;4975712;28;20042;-73
2022/10/22 00:28:45;;;;;;;9.82;4.70;;;13.50;99.90;;;;;;4991171;28;20393;-74
2022/10/22 00:31:11;;;;;;;10.10;5.32;;;13.40;99.90;;;;;;5010814;28;20452;-73
2022/10/22 00:33:36;;;;;;;9.13;4.53;;;13.40;99.90;;;;;;5011008;28;20428;-74
2022/10/22 00:36:02;;;;;;;9.07;4.28;;;13.40;99.90;;;;;;4995500;28;20496;-74
2022/10/22 00:38:27;;;;;;;8.38;4.07;;;13.40;99.90;;;;;;4994776;28;20056;-74
2022/10/22 00:40:53;;;;;;;9.15;4.45;;;13.40;99.90;;;;;;4976701;28;20046;-74
2022/10/22 00:43:19;;;;;;;9.32;4.70;;;13.30;99.90;;;;;;4993381;28;20069;-74
2022/10/22 00:45:45;;;;;;;8.68;4.40;;;13.40;99.90;;;;;;5011536;28;20492;-74
2022/10/22 00:48:17;;;;;;;9.77;5.32;;;13.30;99.90;;;;;;4995274;28;20045;-74
2022/10/22 00:50:49;;;;;;;10.10;5.30;;;13.40;99.90;;;;;;4977513;28;20415;-74
2022/10/22 00:53:21;;;;;;;8.88;4.90;;;13.40;99.90;;;;;;4995061;28;20038;-74
2022/10/22 00:55:50;;;;;;;10.63;5.72;;;13.40;99.90;;;;;;4995129;28;20125;-74
2022/10/22 00:58:17;;;;;;;11.43;5.30;;;13.40;99.90;;;;;;4978841;28;20456;-74
2022/10/22 01:00:43;;;;;;;9.63;5.80;;;13.40;99.90;;;;;;5010434;28;20046;-74
2022/10/22 01:03:09;;;;;;;9.45;5.22;;;13.40;99.90;;;;;;4979019;28;20035;-74
2022/10/22 01:05:50;;;;;;;11.98;5.15;;;13.40;99.90;;;;;;4994860;28;20046;-73
2022/10/22 01:08:40;;;;;;;10.82;5.88;;;13.40;99.90;;;;;;5010206;28;20497;-74
2022/10/22 01:11:47;;;;;;;12.77;6.15;;;13.40;99.90;;;;;;5010380;28;20133;-74
2022/10/22 01:14:35;;;;;;;9.98;6.15;;;13.40;99.90;;;;;;4977069;28;20080;-74
2022/10/22 01:17:32;;;;;;;9.82;5.03;;;13.50;99.90;;;;;;4977569;28;20038;-74
2022/10/22 01:20:07;;;;;;;9.63;5.00;;;13.50;99.90;;;;;;4977735;28;20084;-73
2022/10/22 01:23:00;;;;;;;7.40;4.60;;;13.50;99.90;;;;;;4994603;28;20042;-74
2022/10/22 01:25:56;;;;;;;9.30;5.05;;;13.50;99.90;;;;;;5009823;28;20038;-74
2022/10/22 01:28:36;;;;;;;8.50;4.93;;;13.40;99.90;;;;;;4993770;28;20093;-74
2022/10/22 01:31:03;;;;;;;7.22;4.82;;;13.30;99.90;;;;;;4977441;28;20042;-74
2022/10/22 01:33:30;;;;;;;12.63;5.22;;;13.30;99.90;;;;;;4993622;28;20080;-74
2022/10/22 01:35:58;;;;;;;9.85;4.97;;;13.30;99.90;;;;;;5010783;28;20077;-73
2022/10/22 01:38:25;;;;;;;12.90;5.93;;;13.40;99.90;;;;;;5010886;28;20038;-74
2022/10/22 01:40:51;;;;;;;10.30;4.93;;;13.40;99.90;;;;;;5009515;28;20117;-74
2022/10/22 01:43:17;;;;;;;7.97;4.85;;;13.40;99.90;;;;;;4993711;28;20149;-74
2022/10/22 01:45:50;;;;;;;9.32;5.15;;;13.30;99.90;;;;;;4994027;28;20050;-74
2022/10/22 01:48:28;;;;;;;11.15;5.20;;;13.30;99.90;;;;;;4994380;28;20046;-74
2022/10/22 01:51:21;;;;;;;10.88;5.55;;;13.30;99.90;;;;;;4993063;28;20096;-74
2022/10/22 01:54:00;;;;;;;7.85;5.10;;;13.30;99.90;;;;;;4993978;28;20038;-74
2022/10/22 01:56:52;;;;;;;10.68;5.60;;;13.40;99.90;;;;;;4978185;28;20132;-74
2022/10/22 01:59:41;;;;;;;11.40;5.80;;;13.30;99.90;;;;;;4978062;28;20062;-75
2022/10/22 02:02:23;;;;;;;10.05;5.40;;;13.30;99.90;;;;;;4992845;28;20658;-74
2022/10/22 02:04:55;;;;;;;10.00;5.97;;;13.30;99.90;;;;;;4993104;28;20046;-74
2022/10/22 02:07:24;;;;;;;;;;;13.30;99.90;;;;;;5009773;28;20050;-74
2022/10/22 02:09:51;;;;;;;9.02;5.40;;;13.30;99.90;;;;;;5026534;28;19968;-74
2022/10/22 02:12:19;;;;;;;9.48;6.30;;;13.30;99.90;;;;;;4993590;28;20049;-74
2022/10/22 02:14:46;;;;;;;9.82;6.00;;;13.20;99.90;;;;;;4992881;28;20042;-74
2022/10/22 02:17:17;;;;;;;9.65;6.28;;;13.20;99.90;;;;;;4993628;28;20050;-74
2022/10/22 02:19:52;;;;;;;11.43;6.15;;;13.20;99.90;;;;;;5025792;28;20125;-74
2022/10/22 02:22:18;;;;;;;9.13;6.53;;;13.20;99.90;;;;;;5009128;28;20061;-74
2022/10/22 02:24:45;;;;;;;13.23;6.47;;;13.20;99.90;;;;;;4976600;28;20038;-74
2022/10/22 02:27:17;;;;;;;11.40;6.53;;;13.20;99.90;;;;;;5008912;28;20492;-74
2022/10/22 02:30:04;;;;;;;10.65;7.13;;;13.20;99.90;;;;;;4992732;28;20445;-74
2022/10/22 02:32:52;;;;;;;11.38;6.95;;;13.20;99.90;;;;;;4992715;28;20395;-74
2022/10/22 02:35:21;;;;;;;8.73;6.00;;;13.20;99.90;;;;;;4991466;28;20054;-74
2022/10/22 02:37:48;;;;;;;10.68;6.28;;;13.10;99.90;;;;;;4993467;28;20054;-74
2022/10/22 02:40:15;;;;;;;10.05;6.53;;;13.10;99.90;;;;;;4992644;28;20034;-74
2022/10/22 02:42:41;;;;;;;11.20;6.30;;;13.20;99.90;;;;;;4976923;28;20070;-74
2022/10/22 02:45:08;;;;;;;12.10;6.32;;;13.20;99.90;;;;;;5009392;28;20049;-74
2022/10/22 02:47:33;;;;;;;10.93;6.72;;;13.30;99.90;;;;;;4992967;28;20500;-73
2022/10/22 02:49:59;;;;;;;10.70;7.05;;;13.30;99.90;;;;;;4976163;28;20053;-74
2022/10/22 02:52:25;;;;;;;12.55;6.22;;;13.30;99.90;;;;;;4985765;28;20053;-74
2022/10/22 02:54:50;;;;;;;12.18;7.13;;;13.20;99.90;;;;;;4967422;28;20510;-74
2022/10/22 02:57:16;;;;;;;10.63;6.65;;;13.20;99.90;;;;;;5008492;28;20038;-74
2022/10/22 02:59:41;;;;;;;12.90;7.18;;;13.20;99.90;;;;;;5009011;28;20448;-74
2022/10/22 03:02:07;;;;;;;9.95;6.97;;;13.20;99.90;;;;;;4991822;28;20097;-74
2022/10/22 03:04:33;;;;;;;11.70;7.07;;;13.10;99.90;;;;;;4990928;28;20046;-74
2022/10/22 03:06:58;;;;;;;11.55;6.90;;;13.20;99.90;;;;;;4976585;28;20481;-74
2022/10/22 03:09:24;;;;;;;10.88;6.93;;;13.10;99.90;;;;;;4992079;28;20031;-74
2022/10/22 03:11:50;;;;;;;10.95;6.88;;;13.10;99.90;;;;;;4992804;28;20105;-74
2022/10/22 03:14:15;;;;;;;12.13;6.70;;;13.10;99.90;;;;;;4992766;28;20050;-74
2022/10/22 03:16:41;;;;;;;12.43;7.57;;;13.10;99.90;;;;;;5009123;28;20065;-74
2022/10/22 03:19:06;;;;;;;11.75;6.93;;;13.10;99.90;;;;;;4991861;28;20049;-74
2022/10/22 03:21:44;;;;;;;9.90;6.25;;;13.10;99.90;;;;;;5009189;28;20082;-74
2022/10/22 03:24:18;;;;;;;11.55;7.20;;;13.20;99.90;;;;;;4991764;28;20061;-74
2022/10/22 03:26:46;;;;;;;11.30;7.60;;;13.20;99.90;;;;;;4976353;28;20050;-74
2022/10/22 03:29:14;;;;;;;10.55;6.70;;;13.20;99.90;;;;;;4992173;28;20481;-74
2022/10/22 03:31:39;;;;;;;11.90;6.75;;;13.10;99.90;;;;;;4991593;28;20034;-73
2022/10/22 03:34:05;;;;;;;10.10;7.60;;;13.20;99.90;;;;;;4992502;28;20038;-74
2022/10/22 03:36:32;;;;;;;12.45;7.65;;;13.20;99.90;;;;;;4975499;28;20046;-74
2022/10/22 03:38:59;;;;;;;14.27;7.03;;;13.20;99.90;;;;;;4992583;28;20101;-74
2022/10/22 03:41:25;;;;;;;14.60;7.95;;;13.20;99.90;;;;;;4991407;28;20046;-74
2022/10/22 03:43:52;;;;;;;13.52;7.88;;;13.10;99.90;;;;;;4992378;28;20048;-74
2022/10/22 03:46:18;;;;;;;13.35;7.63;;;13.10;99.90;;;;;;5008607;28;20048;-74
2022/10/22 03:48:44;;;;;;;12.05;7.20;;;13.10;99.90;;;;;;4991642;28;20042;-74
2022/10/22 03:51:09;;;;;;;15.30;7.78;;;13.10;99.90;;;;;;5008992;28;20100;-74
2022/10/22 03:53:35;;;;;;;11.73;6.70;;;13.10;99.90;;;;;;4991605;28;20602;-74
2022/10/22 03:56:00;;;;;;;10.63;6.88;;;13.10;99.90;;;;;;5008455;28;20117;-73
2022/10/22 03:58:26;;;;;;;11.55;7.40;;;13.10;99.90;;;;;;4991359;28;20050;-74
2022/10/22 04:00:52;;;;;;;12.20;7.47;;;13.00;99.90;;;;;;4991323;28;20456;-74
2022/10/22 04:03:18;;;;;;;10.88;7.05;;;13.00;99.90;;;;;;4975451;28;20034;-74
2022/10/22 04:05:43;;;;;;;10.77;7.28;;;13.10;99.90;;;;;;4978019;28;20456;-74
2022/10/22 04:08:09;;;;;;;10.93;6.75;;;13.00;99.90;;;;;;5012308;28;20046;-74
2022/10/22 04:10:35;;;;;;;10.73;7.15;;;13.10;99.90;;;;;;4995714;28;20048;-74
2022/10/22 04:13:00;;;;;;;10.88;7.07;;;13.00;99.90;;;;;;4994929;28;20042;-74
2022/10/22 04:15:27;;;;;;;11.32;7.07;;;13.20;99.90;;;;;;4994965;28;20104;-74
2022/10/22 04:17:53;;;;;;;10.73;7.28;;;13.30;99.90;;;;;;5011555;28;20073;-74
2022/10/22 04:20:19;;;;;;;12.30;7.32;;;13.30;99.90;;;;;;4979683;28;20069;-74
2022/10/22 04:22:44;;;;;;;14.55;8.13;;;13.10;99.90;;;;;;4995733;28;20077;-74
2022/10/22 04:25:10;;;;;;;12.98;7.50;;;13.10;99.90;;;;;;4995230;28;20042;-74
2022/10/22 04:27:36;;;;;;;13.98;8.23;;;13.20;99.90;;;;;;4995462;28;20137;-74
2022/10/22 04:30:03;;;;;;;14.10;8.13;;;13.10;99.90;;;;;;4995915;28;20400;-74
2022/10/22 04:32:29;;;;;;;14.13;7.70;;;13.10;99.90;;;;;;5010102;28;20042;-74
2022/10/22 04:34:54;;;;;;;12.20;7.95;;;13.00;99.90;;;;;;4995596;28;20049;-74
2022/10/22 04:37:21;;;;;;;11.27;7.68;;;13.00;99.90;;;;;;4995420;28;20189;-74
2022/10/22 04:39:46;;;;;;;11.13;8.00;;;13.00;99.90;;;;;;4994633;28;20038;-74
2022/10/22 04:42:12;;;;;;;12.27;8.10;;;13.00;99.90;;;;;;4995665;28;20101;-74
2022/10/22 04:44:37;;;;;;;14.88;8.48;;;13.10;99.90;;;;;;4978450;28;20045;-74
2022/10/22 04:47:03;;;;;;;12.73;7.85;;;13.10;99.90;;;;;;4977684;28;20125;-74
2022/10/22 04:49:28;;;;;;;13.23;8.30;;;13.10;99.90;;;;;;4993522;28;20034;-74
2022/10/22 04:51:54;;;;;;;13.98;8.25;;;13.00;99.90;;;;;;5014187;28;20034;-74
2022/10/22 04:54:20;;;;;;;11.88;8.60;;;13.00;99.90;;;;;;4968718;28;20508;-74
2022/10/22 04:56:45;;;;;;;12.98;8.55;;;13.00;99.90;;;;;;5008590;28;20043;-74
2022/10/22 04:59:11;;;;;;;12.05;8.13;;;13.00;99.90;;;;;;4992813;28;20133;-74
2022/10/22 05:01:40;;;;;;;13.60;8.50;;;13.00;99.90;;;;;;4994929;28;20481;-74
2022/10/22 05:04:07;;;;;;;12.65;8.73;;;13.00;99.90;;;;;;5027273;28;20137;-74
2022/10/22 05:06:35;;;;;;;12.68;7.97;;;13.00;99.90;;;;;;4979758;28;20051;-74
2022/10/22 05:09:04;;;;;;;13.77;8.60;;;13.10;99.90;;;;;;4984493;28;20042;-74
2022/10/22 05:11:32;;;;;;;14.73;8.82;;;13.10;99.90;;;;;;4993996;28;20077;-74
2022/10/22 05:14:00;;;;;;;13.70;8.55;;;13.00;99.90;;;;;;4977715;28;20074;-74
2022/10/22 05:16:27;;;;;;;15.20;8.77;;;13.00;99.90;;;;;;4983140;28;20046;-74
2022/10/22 05:18:53;;;;;;;15.65;8.65;;;13.00;99.90;;;;;;4993178;28;20069;-74
2022/10/22 05:21:20;;;;;;;14.75;8.85;;;13.00;99.90;;;;;;4981614;28;20100;-74
2022/10/22 05:23:48;;;;;;;13.40;8.13;;;12.90;99.90;;;;;;4984787;28;20039;-74
2022/10/22 05:26:16;;;;;;;12.43;8.32;;;13.00;99.90;;;;;;4992894;28;20054;-74
2022/10/22 05:28:42;;;;;;;13.10;8.55;;;13.00;99.90;;;;;;4991450;28;20041;-74
2022/10/22 05:31:09;;;;;;;13.05;9.02;;;13.00;99.90;;;;;;5026037;28;20034;-74
2022/10/22 05:33:35;;;;;;;12.82;8.65;;;13.00;99.90;;;;;;4992900;28;20558;-74
2022/10/22 05:36:02;;;;;;;14.27;8.38;;;13.00;99.90;;;;;;4989172;28;20038;-74
2022/10/22 05:38:28;;;;;;;13.38;9.00;;;13.00;99.90;;;;;;4982139;28;20408;-74
2022/10/22 05:41:00;;;;;;;12.45;8.32;;;13.00;99.90;;;;;;5025510;28;20041;-74
2022/10/22 05:43:26;;;;;;;14.20;8.65;;;13.00;99.90;;;;;;4991547;28;20057;-74
2022/10/22 05:45:52;;;;;;;15.18;8.75;;;13.00;99.90;;;;;;4977301;28;20519;-74
2022/10/22 05:48:17;;;;;;;14.85;8.93;;;13.10;99.90;;;;;;4993012;28;20039;-74
2022/10/22 05:50:45;;;;;;;10.63;7.85;;;13.00;99.90;;;;;;4974091;28;20374;-74
2022/10/22 05:53:11;;;;;;;14.93;8.98;;;13.00;99.90;;;;;;5016420;28;20046;-74
2022/10/22 05:55:39;;;;;;;13.98;8.38;;;12.90;99.90;;;;;;4991027;28;20137;-75
2022/10/22 05:58:05;;;;;;;12.93;8.25;;;13.10;99.90;;;;;;4992937;28;20483;-74
2022/10/22 06:00:30;;;;;;;15.48;8.75;;;13.00;99.90;;;;;;4994025;28;20081;-74
2022/10/22 06:02:56;;;;;;;13.50;8.68;;;13.00;99.90;;;;;;4975977;28;20039;-74
2022/10/22 06:05:22;;;;;;;14.05;8.27;;;13.00;99.90;;;;;;4993523;28;20066;-74
2022/10/22 06:07:47;;;;;;;15.40;9.40;;;13.00;99.90;;;;;;5025902;28;20089;-74
2022/10/22 06:10:15;;;;;;;12.38;7.82;;;13.00;99.90;;;;;;4993792;28;20038;-75
2022/10/22 06:12:41;;;;;;;17.50;10.63;;;12.90;99.90;;;;;;4993003;28;20030;-75
2022/10/22 06:15:08;;;;;;;14.00;8.80;;;13.00;99.90;;;;;;5006528;28;20046;-74
2022/10/22 06:17:34;;;;;;;13.93;8.40;;;13.00;99.90;;;;;;5006709;28;20085;-74
2022/10/22 06:20:00;;;;;;;13.20;8.45;;;12.90;99.90;;;;;;5005008;28;20078;-74
2022/10/22 06:22:25;;;;;;;14.88;9.05;;;12.90;99.90;;;;;;4977191;28;20105;-75
2022/10/22 06:24:51;;;;;;;14.27;8.70;;;12.90;99.90;;;;;;4992399;28;20125;-75
2022/10/22 06:27:16;;;;;;;13.70;9.13;;;12.90;99.90;;;;;;4991401;28;20508;-74
2022/10/22 06:29:42;;;;;;;13.13;8.15;;;13.00;99.90;;;;;;4991401;28;20026;-74
2022/10/22 06:32:07;;;;;;;13.27;8.43;;;13.00;99.90;;;;;;4976247;28;20093;-74
2022/10/22 06:34:33;;;;;;;12.43;8.20;;;13.00;99.90;;;;;;5005390;28;20076;-74
2022/10/22 06:36:59;;;;;;;15.20;8.32;;;13.00;99.90;;;;;;4991875;28;20057;-74
2022/10/22 06:39:24;;;;;;;15.23;8.75;;;13.00;99.90;;;;;;4989815;28;20519;-75
2022/10/22 06:41:50;;;;;;;14.90;8.15;;;13.00;99.90;;;;;;4990519;28;20420;-74
2022/10/22 06:44:17;;;;;;;13.63;7.70;;;13.00;99.90;;;;;;4990814;28;20503;-75
2022/10/22 06:46:43;;;;;;;14.40;9.07;;;13.10;99.90;;;;;;4991844;28;20062;-74
2022/10/22 06:49:13;;;;;;;14.57;7.88;;;13.10;99.90;;;;;;4990134;28;20034;-75
2022/10/22 06:51:38;;;;;;;12.60;8.10;;;13.10;99.90;;;;;;4992970;28;20393;-75
2022/10/22 06:54:04;;;;;;;15.13;8.68;;;13.10;99.90;;;;;;5007300;28;20046;-74
2022/10/22 06:56:30;;;;;;;13.85;8.02;;;13.10;99.90;;;;;;5000061;28;20038;-74
2022/10/22 06:58:57;;;;;;;13.38;8.20;;;13.20;99.90;;;;;;4990146;28;20069;-74
2022/10/22 07:01:25;;;;;;;12.50;7.20;;;13.20;99.90;;;;;;4975295;28;20484;-74
2022/10/22 07:03:52;;;;;;;14.43;7.75;;;13.20;99.90;;;;;;4976642;28;20125;-75
2022/10/22 07:06:18;;;;;;;12.80;7.72;;;13.20;99.90;;;;;;4991138;28;20169;-74
2022/10/22 07:08:44;;;;;;;12.63;7.82;;;13.20;99.90;;;;;;4991685;28;20612;-74
2022/10/22 07:11:15;;;;;;;14.93;7.47;;;13.20;99.90;;;;;;4988206;28;20125;-75
2022/10/22 07:13:41;;;;;;;14.43;7.77;;;13.30;99.90;;;;;;4975020;28;20031;-75
2022/10/22 07:16:08;;;;;;;14.57;7.57;;;13.30;99.90;;;;;;4975366;28;20042;-74
2022/10/22 07:18:34;;;;;;;12.95;7.10;;;13.40;99.90;;;;;;4989555;28;20046;-74
2022/10/22 07:21:00;;;;;;;11.20;7.47;;;13.40;99.90;;;;;;5023980;28;20034;-75
2022/10/22 07:23:27;;;;;;;13.55;7.65;;;13.40;99.90;;;;;;4973379;28;20551;-74
2022/10/22 07:25:52;;;;;;;13.45;7.22;;;13.40;99.90;;;;;;4991347;28;20047;-74
2022/10/22 07:28:18;;;;;;;13.90;7.50;;;13.40;99.90;;;;;;4989999;28;20042;-74
2022/10/22 07:30:44;;;;;;;11.63;7.18;;;13.40;99.90;;;;;;4989310;28;20492;-75
2022/10/22 07:33:10;;;;;;;15.48;7.65;;;13.50;99.90;;;;;;5012792;28;20053;-75
2022/10/22 07:35:37;;;;;;;14.40;6.80;;;13.50;99.90;;;;;;4995071;28;20038;-75
2022/10/22 07:38:03;;;;;;;12.30;6.53;;;13.50;99.90;;;;;;4990729;28;20496;-74
2022/10/22 07:40:29;;;;;;;15.10;7.25;;;13.60;99.90;;;;;;4977356;28;20042;-75
2022/10/22 07:42:54;;;;;;;13.13;6.85;;;13.60;99.90;;;;;;4996617;28;20385;-75
2022/10/22 07:45:20;;;;;;;14.73;6.68;;;13.60;99.90;;;;;;4996383;28;20038;-75
2022/10/22 07:47:46;;;;;;;11.75;6.90;;;13.60;99.90;;;;;;4980118;28;20031;-75
2022/10/22 07:50:12;;;;;;;12.45;6.65;;;13.60;99.90;;;;;;4995402;28;20088;-74
2022/10/22 07:52:38;;;;;;;14.20;6.75;;;13.60;99.90;;;;;;5011000;28;20476;-74
2022/10/22 07:55:04;;;;;;;10.35;6.15;;;13.70;99.90;;;;;;5011886;28;20146;-74
2022/10/22 07:57:30;;;;;;;12.52;6.20;;;13.70;99.90;;;;;;4976542;28;20050;-74
2022/10/22 07:59:57;;;;;;;14.10;6.93;;;13.80;99.90;;;;;;4990574;28;20042;-74
2022/10/22 08:02:23;;;;;;;11.98;6.35;;;13.80;99.90;;;;;;5010032;28;20038;-75
2022/10/22 08:04:49;;;;;;;9.38;5.88;;;13.80;99.90;;;;;;5008299;28;20408;-74
2022/10/22 08:07:14;;;;;;;14.13;6.20;;;13.80;99.90;;;;;;5026679;28;20039;-74
2022/10/22 08:09:40;;;;;;;15.20;6.72;;;13.90;99.90;;;;;;5012247;28;20039;-75
2022/10/22 08:12:06;;;;;;;10.95;5.60;;;13.90;99.90;;;;;;4994014;28;20041;-75
2022/10/22 08:14:31;;;;;;;15.02;5.82;;;13.90;99.90;;;;;;4991707;28;20060;-75
2022/10/22 08:16:57;;;;;;;12.32;6.18;;;14.00;99.90;;;;;;4994811;28;20069;-75
2022/10/22 08:19:22;;;;;;;12.55;5.63;;;13.90;99.90;;;;;;5010999;28;20045;-75
2022/10/22 08:21:48;;;;;;;14.75;5.80;;;14.00;99.90;;;;;;4994614;28;20069;-75
2022/10/22 08:24:14;;;;;;;15.48;5.47;;;14.10;99.90;;;;;;4975789;28;20503;-75
2022/10/22 08:26:40;;;;;;;12.63;5.60;;;14.10;99.90;;;;;;4974544;28;20035;-75
2022/10/22 08:29:06;;;;;;;12.25;6.20;;;14.10;99.90;;;;;;4974610;28;20500;-75
2022/10/22 08:31:32;;;;;;;13.85;5.65;;;14.20;99.90;;;;;;4981436;28;20038;-75
2022/10/22 08:33:58;;;;;;;11.52;5.38;;;14.20;99.90;;;;;;4979221;28;20089;-75
2022/10/22 08:36:23;;;;;;;13.82;5.38;;;14.30;99.90;;;;;;4987595;28;20034;-75
2022/10/22 08:38:49;;;;;;;9.50;4.80;;;14.30;99.90;;;;;;5007903;28;20452;-75
2022/10/22 08:41:18;;;;;;;11.18;4.85;;;14.40;99.90;;;;;;5009355;28;20488;-75
2022/10/22 08:44:03;;;;;;;12.73;5.20;;;14.50;99.90;;;;;;4977528;28;20076;-75
2022/10/22 08:46:43;;;;;;;12.25;4.72;;;14.60;99.90;;;;;;4978193;28;20045;-75
2022/10/22 08:49:17;;;;;;;11.10;5.85;;;14.60;99.90;;;;;;4978618;28;20128;-75
2022/10/22 08:51:43;;;;;;;11.35;5.88;;;14.70;99.90;;;;;;4994507;28;20085;-75
2022/10/22 08:54:45;;;;;;;13.38;5.00;;;14.80;99.90;;;;;;4994611;28;20045;-75
2022/10/22 08:57:38;;;;;;;13.27;5.13;;;15.00;99.90;;;;;;5020933;28;20511;-75
2022/10/22 09:00:03;;;;;;;17.02;4.50;;;15.10;99.90;;;;;;4971170;28;20061;-75
2022/10/22 09:02:55;;;;;;;16.33;4.50;;;15.10;99.90;;;;;;4975562;28;20046;-75
2022/10/22 09:05:41;;;;;;;12.73;5.00;;;15.30;99.90;;;;;;4993309;28;20046;-75
2022/10/22 09:08:12;;;;;;;15.02;4.93;;;15.40;99.90;;;;;;4993731;28;20057;-74
2022/10/22 09:10:44;;;;;;;11.43;4.18;;;15.40;99.90;;;;;;4992659;28;20038;-75
2022/10/22 09:13:17;;;;;;;12.55;3.97;;;15.50;99.90;;;;;;4988626;28;20041;-75
2022/10/22 09:15:48;;;;;;;12.82;4.68;;;15.60;99.90;;;;;;4984604;28;20046;-74
2022/10/22 09:18:32;;;;;;;13.02;4.22;;;15.70;99.90;;;;;;4994249;28;20049;-74
2022/10/22 09:21:09;;;;;;;11.43;4.40;;;15.70;99.90;;;;;;4993299;28;20433;-75
2022/10/22 09:23:51;;;;;;;10.48;4.13;;;15.70;99.90;;;;;;4991541;28;20093;-74
2022/10/22 09:26:16;;;;;;;12.15;4.07;;;15.80;99.90;;;;;;4990642;28;20404;-74
2022/10/22 09:28:42;;;;;;;9.95;4.03;;;15.80;99.90;;;;;;4992590;28;20348;-74
2022/10/22 09:31:11;;;;;;;12.35;4.18;;;15.80;99.90;;;;;;4976680;28;20038;-74
2022/10/22 09:33:37;;;;;;;12.05;3.80;;;15.80;99.90;;;;;;5008327;28;20436;-74
2022/10/22 09:36:05;;;;;;;14.70;3.92;;;15.90;99.90;;;;;;5008295;28;20542;-74
2022/10/22 09:38:40;;;;;;;11.48;4.43;;;15.90;99.90;;;;;;4976426;28;20046;-74
2022/10/22 09:41:07;;;;;;;15.07;3.78;;;16.00;99.90;;;;;;4993064;28;20093;-74
2022/10/22 09:43:34;;;;;;;11.27;3.72;;;15.90;99.90;;;;;;4992177;28;20117;-74
2022/10/22 09:46:06;;;;;;;12.82;3.42;;;16.00;99.90;;;;;;4992029;28;20133;-74
2022/10/22 09:48:39;;;;;;;12.88;3.78;;;15.90;99.90;;;;;;4976432;28;20034;-74
2022/10/22 09:51:04;;;;;;;12.55;3.85;;;15.90;99.90;;;;;;5020241;28;20069;-74
2022/10/22 09:53:40;;;;;;;10.52;3.22;;;15.90;99.90;;;;;;5009891;28;20061;-74
2022/10/22 09:56:09;;;;;;;10.80;3.60;;;15.90;99.90;;;;;;4973462;28;20074;-74
2022/10/22 09:58:56;;;;;;;11.93;3.85;;;15.90;99.90;;;;;;4964588;28;20051;-74
2022/10/22 10:01:37;;;;;;;11.60;3.83;;;15.90;99.90;;;;;;5008580;28;20042;-74
2022/10/22 10:04:09;;;;;;;14.98;3.80;;;15.90;99.90;;;;;;5007848;28;20038;-74
2022/10/22 10:06:35;;;;;;;8.80;3.80;;;15.90;99.90;;;;;;4976104;28;20042;-74
2022/10/22 10:09:04;;;;;;;10.00;3.47;;;15.90;99.90;;;;;;5007535;28;20042;-74
2022/10/22 10:11:50;;;;;;;14.30;4.13;;;15.80;99.90;;;;;;4992085;28;20492;-74
2022/10/22 10:14:36;;;;;;;11.73;4.25;;;15.90;99.90;;;;;;4981009;28;20046;-74
2022/10/22 10:17:35;;;;;;;12.32;4.00;;;15.80;99.90;;;;;;4992285;28;20564;-74
2022/10/22 10:20:30;;;;;;;11.82;4.28;;;15.80;99.90;;;;;;4990942;28;20050;-74
2022/10/22 10:23:17;;;;;;;11.52;4.13;;;15.80;99.90;;;;;;4992151;28;20046;-74
2022/10/22 10:25:47;;;;;;;10.82;4.75;;;15.80;99.90;;;;;;4990633;28;20046;-73
2022/10/22 10:28:57;;;;;;;10.45;4.05;;;15.80;99.90;;;;;;4976439;28;20424;-80
2022/10/22 10:31:44;;;;;;;16.98;4.18;;;15.80;99.90;;;;;;4992132;28;20042;-73
2022/10/22 10:34:28;;;;;;;10.98;3.95;;;15.80;99.90;;;;;;4991933;28;20073;-73
2022/10/22 10:37:31;;;;;;;12.77;4.45;;;15.80;99.90;;;;;;5008180;28;20042;-73
2022/10/22 10:40:15;;;;;;;16.40;4.80;;;15.80;99.90;;;;;;4990756;28;20137;-73
2022/10/22 10:43:09;;;;;;;9.45;4.47;;;15.80;99.90;;;;;;4991851;28;20053;-73
2022/10/22 10:45:44;;;;;;;14.55;4.53;;;15.90;99.90;;;;;;4972223;28;20042;-73
2022/10/22 10:48:21;;;;;;;14.30;4.53;;;15.90;99.90;;;;;;4989746;28;20047;-73
2022/10/22 10:50:49;;;;;;;11.63;4.00;;;15.90;99.90;;;;;;4988571;28;20049;-73
2022/10/22 10:53:37;;;;;;;10.70;4.88;;;15.90;99.90;;;;;;4990127;28;20448;-73
2022/10/22 10:56:34;;;;;;;13.63;5.97;;;16.00;99.90;;;;;;5021205;28;20060;-73
2022/10/22 10:59:41;;;;;;;11.23;4.60;;;16.00;99.90;;;;;;4989853;28;20058;-73
2022/10/22 11:02:31;;;;;;;11.30;5.15;;;16.00;99.90;;;;;;5003528;28;20053;-74
2022/10/22 11:05:06;;;;;;;15.05;4.45;;;16.00;99.90;;;;;;5008576;28;20050;-73
2022/10/22 11:07:51;;;;;;;11.38;4.80;;;16.00;99.90;;;;;;4992451;28;20096;-73
2022/10/22 11:10:24;;;;;;;13.27;4.72;;;16.00;99.90;;;;;;4992227;28;20049;-73
2022/10/22 11:12:51;;;;;;;10.95;4.72;;;15.90;99.90;;;;;;4992021;28;20523;-73
2022/10/22 11:15:29;;;;;;;14.73;4.85;;;15.90;99.90;;;;;;5025263;28;20050;-73
2022/10/22 11:18:19;;;;;;;11.30;4.85;;;15.90;99.90;;;;;;5024805;28;20061;-73
2022/10/22 11:20:50;;;;;;;11.27;4.78;;;15.90;99.90;;;;;;5008585;28;20496;-73
2022/10/22 11:23:45;;;;;;;10.25;4.35;;;15.90;99.90;;;;;;5007874;28;20057;-73
2022/10/22 11:26:32;;;;;;;11.00;4.75;;;15.80;99.90;;;;;;4978080;28;20077;-73
2022/10/22 11:29:00;;;;;;;11.77;5.15;;;15.70;99.90;;;;;;4991685;28;20038;-73
2022/10/22 11:31:27;;;;;;;16.17;5.25;;;15.80;99.90;;;;;;4992077;28;20508;-73
2022/10/22 11:34:00;;;;;;;10.95;4.90;;;15.80;99.90;;;;;;4991705;28;20053;-73
2022/10/22 11:36:28;;;;;;;11.98;4.75;;;15.90;99.90;;;;;;4991911;28;20092;-73
2022/10/22 11:38:54;;;;;;;13.25;5.07;;;15.90;99.90;;;;;;4992079;28;20053;-73
2022/10/22 11:41:26;;;;;;;12.52;5.07;;;15.90;99.90;;;;;;5008319;28;20186;-73
2022/10/22 11:43:56;;;;;;;12.63;5.22;;;15.90;99.90;;;;;;4991928;28;20046;-73
2022/10/22 11:46:21;;;;;;;11.93;5.97;;;16.00;99.90;;;;;;5008032;28;20089;-73
2022/10/22 11:49:02;;;;;;;11.38;5.53;;;16.00;99.90;;;;;;4995691;28;20046;-73
2022/10/22 11:51:35;;;;;;;11.30;5.00;;;16.00;99.90;;;;;;4991825;28;20038;-73
2022/10/22 11:54:22;;;;;;;13.60;5.32;;;16.00;99.90;;;;;;5007058;28;20038;-73
2022/10/22 11:56:56;;;;;;;12.13;5.47;;;16.10;99.90;;;;;;4991447;28;20401;-73
2022/10/22 11:59:40;;;;;;;11.07;5.00;;;16.10;99.90;;;;;;4975547;28;20062;-73
2022/10/22 12:02:42;;;;;;;12.20;5.03;;;16.20;99.90;;;;;;4991699;28;20049;-73
2022/10/22 12:05:16;;;;;;;9.57;4.50;;;16.20;99.90;;;;;;4944731;29;20058;-73
2022/10/22 12:07:58;;;;;;;10.98;5.05;;;16.20;99.90;;;;;;4983355;28;20058;-73
2022/10/22 12:10:35;;;;;;;;;;;16.20;99.90;;;;;;4992717;28;20046;-73
2022/10/22 12:13:12;;;;;;;11.30;4.60;;;16.20;99.90;;;;;;5008208;28;19964;-73
2022/10/22 12:15:47;;;;;;;13.05;4.72;;;16.10;99.90;;;;;;5008255;28;20101;-73
2022/10/22 12:18:14;;;;;;;13.15;5.15;;;16.20;99.90;;;;;;5024424;28;20054;-73
2022/10/22 12:20:39;;;;;;;13.68;5.47;;;16.20;99.90;;;;;;5008236;28;20092;-73
2022/10/22 12:23:11;;;;;;;13.25;5.78;;;16.10;99.90;;;;;;5006672;28;20473;-73
2022/10/22 12:25:37;;;;;;;13.52;5.25;;;16.20;99.90;;;;;;4990991;28;20460;-73
2022/10/22 12:28:03;;;;;;;13.10;5.20;;;16.20;99.90;;;;;;4995524;28;20050;-73
2022/10/22 12:30:33;;;;;;;10.60;5.38;;;16.20;99.90;;;;;;4994756;28;20042;-73
2022/10/22 12:33:00;;;;;;;12.35;5.13;;;16.10;99.90;;;;;;4994707;28;20074;-73
2022/10/22 12:35:28;;;;;;;13.23;5.50;;;16.10;99.90;;;;;;4982494;28;20489;-73
2022/10/22 12:37:57;;;;;;;12.52;6.05;;;16.00;99.90;;;;;;4992460;28;20405;-73
2022/10/22 12:40:25;;;;;;;12.50;5.78;;;15.90;99.90;;;;;;5027960;28;20405;-73
2022/10/22 12:43:10;;;;;;;13.68;5.93;;;15.90;99.90;;;;;;4995250;28;20174;-74
2022/10/22 12:45:37;;;;;;;13.05;5.75;;;15.80;99.90;;;;;;4994932;28;20038;-73
2022/10/22 12:48:13;;;;;;;13.90;6.35;;;15.80;99.90;;;;;;4994789;28;20047;-73
2022/10/22 12:50:45;;;;;;;12.48;5.40;;;15.60;99.90;;;;;;4979173;28;20121;-73
2022/10/22 12:53:28;;;;;;;13.60;5.60;;;15.70;99.90;;;;;;4993448;28;20038;-73
2022/10/22 12:55:58;;;;;;;12.52;5.57;;;15.70;99.90;;;;;;4994663;28;20126;-73
2022/10/22 12:58:32;;;;;;;11.20;5.55;;;15.70;99.90;;;;;;4978695;28;20109;-73